Time;durP1;ratioP1;P1;durP2;ratioP2;P2;SDS_P1;SDS_P2;PMS_P1;PMS_P2;Temp;Humidity;BMP_temperature;BMP_pressure;BME280_temperature;BME280_humidity;BME280_pressure;Samples;Min_cycle;Max_cycle;Signal;HPM_P1;HPM_P2
2021/10/15 00:00:22;;;;;;;4.90;2.80;;;18.50;99.90;;;18.78;52.09;101469.50;5022434;27;104809;-48
2021/10/15 00:02:47;;;;;;;6.77;2.23;;;18.60;99.30;;;18.79;51.24;101459.66;5021127;27;97373;-44
2021/10/15 00:05:13;;;;;;;4.13;2.27;;;18.60;99.70;;;18.77;53.04;101464.25;5027533;27;97676;-48
2021/10/15 00:07:39;;;;;;;4.07;2.43;;;18.50;99.90;;;18.73;52.09;101461.75;5031726;27;96647;-46
2021/10/15 00:10:07;;;;;;;4.07;2.57;;;18.50;99.90;;;18.76;53.12;101465.19;5015073;27;97399;-48
2021/10/15 00:12:36;;;;;;;5.83;2.50;;;18.50;99.90;;;18.73;53.36;101458.22;5007047;27;97728;-46
2021/10/15 00:15:03;;;;;;;3.37;1.90;;;18.50;99.90;;;18.67;52.32;101462.13;5010100;27;100301;-46
2021/10/15 00:17:29;;;;;;;6.40;2.30;;;18.40;99.60;;;18.69;53.21;101465.56;5009710;27;100099;-47
2021/10/15 00:19:55;;;;;;;4.73;2.27;;;18.40;99.90;;;18.63;50.37;101471.22;5029512;27;108723;-45
2021/10/15 00:22:21;;;;;;;2.63;2.00;;;18.40;98.00;;;18.64;53.54;101458.72;5010211;27;97498;-48
2021/10/15 00:24:47;;;;;;;1.77;1.53;;;18.40;99.90;;;18.64;53.50;101459.59;5013570;27;117469;-49
2021/10/15 00:27:12;;;;;;;4.17;2.67;;;18.40;99.90;;;18.59;53.10;101463.44;5008579;27;108724;-44
2021/10/15 00:29:38;;;;;;;5.77;2.60;;;18.30;99.90;;;18.52;50.71;101454.94;5032371;27;97499;-44
2021/10/15 00:32:07;;;;;;;3.10;1.83;;;18.20;98.10;;;18.44;53.12;101449.13;5016807;27;97235;-43
2021/10/15 00:34:33;;;;;;;3.73;2.07;;;18.10;99.70;;;18.43;54.08;101447.41;5028139;27;103106;-47
2021/10/15 00:36:59;;;;;;;2.87;2.10;;;18.10;99.90;;;18.49;54.21;101452.41;5029861;27;99541;-47
2021/10/15 00:39:26;;;;;;;3.60;2.30;;;18.20;99.90;;;18.51;54.25;101439.81;5006980;27;97213;-44
2021/10/15 00:41:51;;;;;;;3.07;1.90;;;18.20;99.90;;;18.49;52.79;101431.03;5027550;27;97988;-44
2021/10/15 00:44:17;;;;;;;2.23;1.83;;;18.20;98.90;;;18.49;54.00;101424.84;5024943;27;96953;-44
2021/10/15 00:46:44;;;;;;;6.07;2.60;;;18.20;99.90;;;18.49;51.53;101428.38;5012719;27;104630;-47
2021/10/15 00:49:13;;;;;;;4.30;2.30;;;18.30;99.00;;;18.50;53.37;101422.06;5006863;27;97409;-45
2021/10/15 00:51:42;;;;;;;4.67;2.43;;;18.20;99.90;;;18.53;53.43;101421.06;5013728;27;97812;-44
2021/10/15 00:54:12;;;;;;;3.70;2.10;;;18.30;99.70;;;18.53;53.73;101419.25;5024858;27;98687;-47
2021/10/15 00:56:38;;;;;;;5.70;2.83;;;18.20;99.90;;;18.49;52.28;101409.66;5011959;27;103983;-44
2021/10/15 00:59:04;;;;;;;3.37;1.73;;;18.20;99.60;;;18.45;54.07;101408.13;5030929;27;97439;-47
2021/10/15 01:01:30;;;;;;;3.57;1.80;;;18.10;99.90;;;18.47;53.93;101403.56;5023540;27;97477;-44
2021/10/15 01:04:01;;;;;;;4.20;1.93;;;18.20;99.90;;;18.38;49.40;101401.41;5015193;27;99995;-46
2021/10/15 01:06:28;;;;;;;4.27;2.20;;;18.00;99.00;;;18.39;54.46;101403.13;5004581;27;100790;-45
2021/10/15 01:08:55;;;;;;;5.27;1.97;;;18.00;99.90;;;18.36;54.07;101398.81;5008740;27;97431;-44
2021/10/15 01:11:21;;;;;;;10.33;2.47;;;18.00;99.90;;;18.39;51.21;101403.13;5009741;27;103695;-44
2021/10/15 01:13:48;;;;;;;3.70;2.40;;;18.10;99.90;;;18.25;52.44;101397.72;5017189;27;116883;-46
2021/10/15 01:16:15;;;;;;;4.67;2.10;;;17.90;98.10;;;18.32;54.32;101401.75;5010255;27;100080;-44
2021/10/15 01:18:43;;;;;;;4.13;2.30;;;17.90;99.90;;;18.35;54.33;101396.22;5028270;27;97286;-46
2021/10/15 01:21:11;;;;;;;6.87;2.40;;;18.00;99.90;;;18.37;52.47;101389.88;5005339;27;96972;-45
2021/10/15 01:23:39;;;;;;;3.67;2.10;;;18.10;99.90;;;18.44;54.35;101395.72;5013703;27;99907;-46
2021/10/15 01:26:05;;;;;;;7.33;2.70;;;18.10;99.90;;;18.48;53.87;101386.56;5030071;27;98246;-44
2021/10/15 01:28:32;;;;;;;4.53;2.00;;;18.20;99.90;;;18.54;53.81;101386.25;5030189;27;97382;-45
2021/10/15 01:31:00;;;;;;;5.43;2.40;;;18.30;99.90;;;18.57;53.84;101386.06;5015002;27;97448;-46
2021/10/15 01:33:26;;;;;;;2.03;1.80;;;18.40;99.90;;;18.58;53.73;101382.44;5029678;27;97766;-44
2021/10/15 01:35:52;;;;;;;2.07;1.53;;;18.30;99.90;;;18.61;53.92;101382.25;5031266;27;102246;-45
2021/10/15 01:38:18;;;;;;;2.47;1.60;;;18.40;99.90;;;18.63;53.60;101380.38;5014764;27;97209;-46
2021/10/15 01:40:45;;;;;;;2.37;1.80;;;18.40;99.90;;;18.51;53.29;101370.34;5032059;27;97217;-49
2021/10/15 01:43:31;;;;;;;1.57;1.27;;;18.20;99.90;;;18.54;53.72;101370.22;5028151;27;98030;-46
2021/10/15 01:45:58;;;;;;;2.57;1.70;;;18.20;99.90;;;18.50;53.93;101368.63;5028080;27;98364;-45
2021/10/15 01:48:24;;;;;;;6.17;2.80;;;18.10;99.90;;;18.48;52.15;101370.53;5004824;27;97322;-44
2021/10/15 01:50:51;;;;;;;1.50;1.40;;;18.10;98.40;;;18.49;54.30;101371.41;5029568;27;99220;-46
2021/10/15 01:53:18;;;;;;;3.70;2.30;;;18.10;99.90;;;18.47;53.60;101367.97;5009826;27;98977;-45
2021/10/15 01:55:44;;;;;;;2.83;2.00;;;18.10;99.50;;;18.41;53.74;101363.84;5023927;27;98353;-48
2021/10/15 01:58:10;;;;;;;1.30;1.20;;;18.00;99.90;;;18.39;54.17;101360.41;5028610;27;96835;-48
2021/10/15 02:00:37;;;;;;;3.33;1.80;;;18.00;99.90;;;18.40;53.63;101354.97;5020406;27;97161;-45
2021/10/15 02:03:03;;;;;;;4.40;1.77;;;18.00;99.90;;;18.38;53.91;101356.00;5010747;27;97402;-49
2021/10/15 02:05:30;;;;;;;2.40;1.60;;;18.00;99.90;;;18.43;54.07;101354.78;5009901;27;102103;-46
2021/10/15 02:07:56;;;;;;;4.17;2.43;;;18.10;99.90;;;18.32;50.47;101343.84;5028967;27;97381;-46
2021/10/15 02:10:23;;;;;;;1.77;1.53;;;18.00;98.30;;;18.29;54.08;101343.19;5024662;27;99149;-49
2021/10/15 02:12:50;;;;;;;2.73;1.53;;;17.90;99.90;;;18.20;54.23;101341.00;5015969;27;98679;-45
2021/10/15 02:15:16;;;;;;;4.10;2.20;;;17.80;99.90;;;18.21;54.00;101337.41;5027297;27;97596;-47
2021/10/15 02:17:43;;;;;;;3.13;2.00;;;17.80;99.90;;;18.21;54.31;101340.06;5013631;27;100948;-48
2021/10/15 02:20:15;;;;;;;3.27;1.70;;;17.80;99.90;;;18.12;53.43;101334.31;5027675;27;97638;-43
2021/10/15 02:22:43;;;;;;;4.90;2.23;;;17.70;99.80;;;18.05;50.00;101330.25;5028597;27;97621;-44
2021/10/15 02:25:10;;;;;;;3.40;2.40;;;17.70;99.40;;;18.10;53.81;101319.34;5009123;27;98460;-50
2021/10/15 02:27:36;;;;;;;4.37;2.63;;;17.70;99.90;;;18.06;52.69;101323.09;5034270;27;96818;-47
2021/10/15 02:30:06;;;;;;;3.87;2.10;;;17.70;99.80;;;18.07;54.76;101317.69;5030496;27;97060;-46
2021/10/15 02:32:31;;;;;;;3.00;1.70;;;17.60;99.90;;;18.04;54.52;101317.00;5027872;27;102958;-44
2021/10/15 02:34:57;;;;;;;1.63;1.23;;;17.60;99.90;;;18.07;55.11;101307.00;5009671;27;97446;-51
2021/10/15 02:37:23;;;;;;;4.73;2.53;;;17.70;99.90;;;18.02;51.77;101309.06;5013162;27;98026;-44
2021/10/15 02:39:49;;;;;;;2.60;1.53;;;17.70;99.70;;;18.03;54.80;101313.47;5016264;27;97898;-46
2021/10/15 02:42:15;;;;;;;1.50;1.30;;;17.60;99.90;;;18.05;55.24;101311.56;5012667;27;97322;-44
2021/10/15 02:44:42;;;;;;;5.33;2.10;;;17.60;99.90;;;18.07;54.20;101314.13;5033461;27;100109;-44
2021/10/15 02:47:08;;;;;;;2.83;1.70;;;17.70;99.90;;;18.11;55.15;101308.56;5025743;27;97038;-48
2021/10/15 02:49:34;;;;;;;8.63;3.47;;;17.70;99.90;;;18.12;52.76;101304.94;5034071;27;96781;-44
2021/10/15 02:51:59;;;;;;;4.77;2.23;;;17.80;99.90;;;18.11;54.58;101299.69;5009727;27;97380;-46
2021/10/15 02:54:25;;;;;;;4.73;2.53;;;17.70;99.90;;;18.12;54.84;101296.06;5012706;27;110552;-45
2021/10/15 02:56:51;;;;;;;4.67;2.40;;;17.70;99.90;;;18.09;54.77;101298.94;5013587;27;97134;-47
2021/10/15 02:59:17;;;;;;;6.20;3.53;;;17.70;99.90;;;18.08;51.61;101287.38;4978598;27;97628;-47
2021/10/15 03:01:43;;;;;;;1.83;1.60;;;17.70;99.80;;;18.10;54.97;101285.50;5033455;27;98843;-43
2021/10/15 03:04:09;;;;;;;2.73;2.00;;;17.70;99.90;;;18.02;54.64;101287.72;5012847;27;97226;-45
2021/10/15 03:06:35;;;;;;;4.87;2.50;;;17.60;99.90;;;17.98;54.61;101279.97;5026616;27;96763;-49
2021/10/15 03:09:02;;;;;;;4.60;2.37;;;17.50;99.90;;;17.97;54.57;101284.47;5013393;27;96789;-43
2021/10/15 03:11:27;;;;;;;7.23;3.70;;;17.50;99.90;;;17.92;52.92;101274.97;5009065;27;99718;-43
2021/10/15 03:13:53;;;;;;;5.27;3.47;;;17.40;99.60;;;17.84;54.44;101272.75;5012121;27;117730;-44
2021/10/15 03:16:19;;;;;;;3.20;1.87;;;17.40;99.90;;;17.86;54.23;101270.00;5011178;27;97197;-43
2021/10/15 03:18:45;;;;;;;2.53;1.57;;;17.40;99.90;;;17.89;55.53;101270.69;5012570;27;98153;-43
2021/10/15 03:21:11;;;;;;;4.70;2.80;;;17.40;99.90;;;17.88;55.22;101274.28;5014999;27;98810;-43
2021/10/15 03:23:37;;;;;;;4.77;2.90;;;17.40;99.90;;;17.83;54.75;101277.22;5016333;27;110972;-44
2021/10/15 03:26:03;;;;;;;5.43;3.30;;;17.40;99.90;;;17.80;52.95;101274.75;5015124;27;96989;-43
2021/10/15 03:28:29;;;;;;;8.07;3.80;;;17.30;99.90;;;17.75;53.01;101268.78;5005492;27;98219;-44
2021/10/15 03:30:55;;;;;;;4.73;3.10;;;17.30;99.90;;;17.76;52.60;101269.63;5015821;27;97329;-44
2021/10/15 03:33:21;;;;;;;5.10;3.10;;;17.30;99.70;;;17.83;54.55;101271.03;5026110;27;99083;-46
2021/10/15 03:35:47;;;;;;;2.70;1.90;;;17.40;99.90;;;17.75;55.40;101265.25;5008933;27;98257;-43
2021/10/15 03:38:13;;;;;;;4.10;2.83;;;17.30;99.90;;;17.73;51.50;101259.16;5011135;27;97068;-44
2021/10/15 03:40:38;;;;;;;10.33;3.43;;;17.30;99.90;;;17.72;54.13;101263.63;5016432;27;100825;-44
2021/10/15 03:43:04;;;;;;;3.33;2.10;;;17.30;99.90;;;17.70;55.15;101259.31;5014419;27;104799;-44
2021/10/15 03:45:30;;;;;;;5.03;2.77;;;17.30;99.90;;;17.64;52.04;101260.47;5012167;27;96803;-43
2021/10/15 03:47:56;;;;;;;7.20;3.50;;;17.20;99.90;;;17.63;54.21;101255.22;5033117;27;97180;-43
2021/10/15 03:50:22;;;;;;;4.67;2.80;;;17.20;99.90;;;17.42;52.79;101260.81;5013121;27;99796;-43
2021/10/15 03:52:48;;;;;;;8.30;4.40;;;16.90;99.90;;;17.37;51.79;101246.00;5004651;27;100363;-43
2021/10/15 03:55:14;;;;;;;6.27;3.17;;;16.90;99.80;;;17.39;55.47;101244.97;5019985;27;98528;-44
2021/10/15 03:57:41;;;;;;;5.43;3.10;;;16.80;99.90;;;17.35;52.79;101246.06;5011366;27;97040;-43
2021/10/15 04:00:11;;;;;;;7.57;3.37;;;16.90;99.90;;;17.42;54.17;101244.81;5030811;27;97243;-47
2021/10/15 04:02:43;;;;;;;3.83;2.27;;;17.00;99.90;;;17.45;56.43;101243.78;5012446;27;100403;-43
2021/10/15 04:05:11;;;;;;;6.87;4.40;;;17.00;99.90;;;17.25;49.08;101240.41;5029182;27;96631;-45
2021/10/15 04:07:37;;;;;;;6.03;3.47;;;16.90;99.20;;;17.30;51.21;101234.81;5014214;27;96907;-43
2021/10/15 04:10:06;;;;;;;5.77;4.27;;;16.90;99.90;;;17.25;54.09;101229.72;4996622;27;100047;-46
2021/10/15 04:12:33;;;;;;;7.90;4.13;;;16.80;99.90;;;17.29;50.22;101232.22;5023088;27;101210;-43
2021/10/15 04:14:59;;;;;;;2.93;1.93;;;16.90;99.80;;;17.24;55.04;101235.16;5015519;27;96727;-42
2021/10/15 04:17:25;;;;;;;8.17;4.47;;;16.80;99.90;;;17.19;54.38;101226.53;5019432;27;100290;-43
2021/10/15 04:19:51;;;;;;;6.47;3.90;;;16.80;99.90;;;17.19;51.28;101207.88;5016237;27;96930;-43
2021/10/15 04:22:17;;;;;;;4.83;2.83;;;16.80;99.90;;;17.17;55.89;101217.75;5006022;27;104199;-45
2021/10/15 04:24:43;;;;;;;3.67;2.30;;;16.70;99.90;;;17.24;56.41;101224.50;5008382;27;98490;-43
2021/10/15 04:27:09;;;;;;;6.07;3.07;;;16.80;99.90;;;17.26;56.02;101214.59;5010262;27;100722;-44
2021/10/15 04:29:35;;;;;;;8.50;2.97;;;16.80;99.90;;;17.42;55.72;101218.13;5014607;27;97618;-45
2021/10/15 04:32:02;;;;;;;6.40;3.57;;;17.00;99.90;;;17.45;55.59;101212.63;5033762;27;97011;-43
2021/10/15 04:34:28;;;;;;;9.93;4.10;;;17.00;99.90;;;17.43;53.71;101209.19;5009874;27;97538;-43
2021/10/15 04:36:53;;;;;;;3.97;1.87;;;17.00;99.60;;;17.39;56.24;101212.97;5009146;28;97591;-44
2021/10/15 04:39:20;;;;;;;8.67;4.30;;;16.90;99.90;;;17.38;50.56;101211.25;5002459;27;104260;-45
2021/10/15 04:41:46;;;;;;;2.40;2.13;;;16.90;99.70;;;17.53;56.06;101199.75;5008676;28;98211;-43
2021/10/15 04:44:13;;;;;;;5.80;4.13;;;17.10;99.90;;;17.49;53.85;101202.63;4995629;27;97422;-44
2021/10/15 04:46:40;;;;;;;10.50;4.87;;;17.00;99.90;;;17.45;49.86;101201.09;5012039;28;97269;-44
2021/10/15 04:49:05;;;;;;;12.23;4.47;;;17.10;99.80;;;17.58;53.11;101202.13;5008566;27;97828;-43
2021/10/15 04:51:31;;;;;;;3.73;2.03;;;17.10;99.90;;;17.60;55.66;101199.38;5000579;27;100494;-43
2021/10/15 04:53:57;;;;;;;9.60;4.23;;;17.10;99.90;;;17.48;49.33;101201.78;5010083;27;110415;-44
2021/10/15 04:56:23;;;;;;;4.90;3.57;;;17.10;99.50;;;17.47;50.46;101202.72;5009061;27;97658;-44
2021/10/15 04:58:49;;;;;;;7.60;3.63;;;17.10;99.90;;;17.55;54.66;101197.84;5013880;27;97033;-44
2021/10/15 05:01:14;;;;;;;5.60;4.13;;;17.10;99.90;;;17.59;51.39;101197.66;5027914;27;107613;-44
2021/10/15 05:03:40;;;;;;;6.17;3.87;;;17.20;99.90;;;17.54;54.71;101190.78;5016038;27;96881;-46
2021/10/15 05:06:06;;;;;;;4.63;2.63;;;17.10;99.90;;;17.58;54.48;101195.94;5033459;27;98117;-43
2021/10/15 05:08:39;;;;;;;8.30;4.33;;;17.10;99.90;;;17.61;52.85;101188.63;5012636;27;101692;-43
2021/10/15 05:11:05;;;;;;;8.93;4.17;;;17.20;99.90;;;17.55;50.60;101187.19;5012841;27;97031;-44
2021/10/15 05:13:31;;;;;;;4.40;2.97;;;17.10;99.80;;;17.53;55.11;101189.06;5010871;27;97112;-45
2021/10/15 05:15:57;;;;;;;5.57;4.20;;;17.00;99.90;;;17.51;50.03;101185.63;5014109;27;96861;-45
2021/10/15 05:18:23;;;;;;;6.53;3.57;;;17.10;99.90;;;17.56;54.49;101188.03;5007097;27;118134;-44
2021/10/15 05:20:48;;;;;;;4.30;2.20;;;17.10;99.90;;;17.62;55.48;101192.16;5026244;27;97006;-44
2021/10/15 05:23:14;;;;;;;6.27;3.40;;;17.10;99.90;;;17.58;55.36;101185.28;4996341;27;102988;-43
2021/10/15 05:25:40;;;;;;;7.87;3.63;;;17.10;99.90;;;17.52;53.97;101189.16;5010843;27;97269;-43
2021/10/15 05:28:06;;;;;;;5.23;3.00;;;17.00;99.90;;;17.56;54.50;101188.03;5004966;27;98392;-44
2021/10/15 05:30:32;;;;;;;6.47;3.33;;;17.10;99.90;;;17.54;55.84;101185.47;5005092;27;101168;-43
2021/10/15 05:32:59;;;;;;;7.90;3.87;;;17.10;99.90;;;17.49;50.35;101187.50;5005414;27;96751;-42
2021/10/15 05:35:25;;;;;;;7.53;4.27;;;17.10;99.50;;;17.46;54.35;101176.16;5008091;27;97513;-43
2021/10/15 05:37:51;;;;;;;5.60;2.90;;;17.00;99.90;;;17.49;52.30;101171.50;5023349;27;98780;-43
2021/10/15 05:40:16;;;;;;;4.13;3.30;;;17.10;99.90;;;17.39;54.32;101175.66;5003759;27;99306;-43
2021/10/15 05:42:47;;;;;;;8.87;3.77;;;16.90;99.90;;;17.38;50.19;101175.75;5003371;27;105574;-45
2021/10/15 05:45:14;;;;;;;9.47;4.60;;;17.00;99.90;;;17.40;53.70;101182.69;5001535;27;97563;-44
2021/10/15 05:47:40;;;;;;;2.60;2.13;;;17.00;99.90;;;17.38;55.08;101178.41;5002466;27;98534;-43
2021/10/15 05:50:08;;;;;;;8.30;4.93;;;16.90;99.90;;;17.40;53.64;101177.38;5008108;27;98608;-44
2021/10/15 05:52:47;;;;;;;6.70;2.70;;;16.90;99.70;;;17.37;55.90;101180.22;5021105;27;98596;-43
2021/10/15 06:00:27;;;;;;;3.03;2.00;;;16.90;99.80;;;17.37;55.62;101172.22;5001052;27;97730;-43
2021/10/15 06:02:53;;;;;;;9.27;4.83;;;16.90;99.90;;;17.24;49.67;101171.16;5005704;27;97121;-43
2021/10/15 06:16:13;;;;;;;3.03;2.00;;;16.80;99.90;;;17.38;56.27;101173.06;5027077;27;101057;-47
2021/10/15 06:18:40;;;;;;;2.63;2.00;;;16.90;99.90;;;17.42;56.06;101180.81;5011294;27;100074;-44
2021/10/15 06:21:07;;;;;;;4.97;3.17;;;16.90;99.90;;;17.52;55.01;101179.34;5029508;27;97202;-45
2021/10/15 06:23:33;;;;;;;8.53;4.13;;;17.10;99.90;;;17.47;51.61;101176.06;5014023;27;98499;-43
2021/10/15 06:26:02;;;;;;;10.03;4.27;;;17.00;99.90;;;17.48;52.19;101172.44;5014592;27;97476;-43
2021/10/15 06:28:29;;;;;;;8.40;3.70;;;17.00;99.90;;;17.57;54.89;101172.88;5010585;27;99382;-45
2021/10/15 06:30:55;;;;;;;4.47;2.87;;;17.10;99.90;;;17.59;55.19;101177.19;4998731;27;97444;-45
2021/10/15 06:33:21;;;;;;;7.47;3.93;;;17.10;99.90;;;17.61;54.92;101169.09;5003754;27;117124;-47
2021/10/15 06:35:46;;;;;;;7.53;3.17;;;17.20;99.90;;;17.50;54.44;101173.25;5009030;27;98661;-43
2021/10/15 06:38:12;;;;;;;2.90;2.50;;;17.10;99.90;;;17.54;55.57;101171.25;5020551;27;99140;-43
2021/10/15 06:40:39;;;;;;;6.67;3.80;;;17.10;99.90;;;17.55;54.86;101171.16;5005215;27;100128;-43
2021/10/15 06:43:09;;;;;;;12.43;4.60;;;17.10;99.90;;;17.60;52.61;101167.38;5008050;27;97396;-44
2021/10/15 06:45:36;;;;;;;9.47;4.60;;;17.10;99.90;;;17.60;54.16;101170.03;5002222;27;98248;-43
2021/10/15 06:48:02;;;;;;;4.93;3.23;;;17.10;99.90;;;17.66;55.55;101178.56;5011742;27;97837;-43
2021/10/15 06:50:28;;;;;;;4.20;3.13;;;17.20;99.90;;;17.68;55.25;101171.38;5025533;27;97189;-44
2021/10/15 06:52:54;;;;;;;10.80;5.30;;;17.30;99.90;;;17.68;51.77;101178.47;5031247;27;97106;-43
2021/10/15 06:55:22;;;;;;;6.43;4.10;;;17.30;99.90;;;17.72;53.55;101177.38;5013935;27;98287;-43
2021/10/15 06:57:49;;;;;;;5.40;3.40;;;17.30;99.90;;;17.71;53.42;101176.53;5027741;27;97787;-43
2021/10/15 07:00:16;;;;;;;11.00;4.87;;;17.30;99.90;;;17.72;53.90;101178.25;5009935;27;99089;-44
2021/10/15 07:02:43;;;;;;;7.97;4.47;;;17.30;99.90;;;17.65;54.21;101170.63;5016352;27;97383;-44
2021/10/15 07:05:10;;;;;;;5.63;3.93;;;17.30;99.90;;;17.69;51.98;101177.56;5015575;27;103390;-50
2021/10/15 07:07:36;;;;;;;12.10;5.17;;;17.30;99.90;;;17.66;54.02;101172.38;5016351;27;102094;-44
2021/10/15 07:10:05;;;;;;;10.43;4.97;;;17.20;99.90;;;17.58;50.67;101164.81;5014766;27;98719;-43
2021/10/15 07:12:41;;;;;;;6.20;3.70;;;17.20;99.90;;;17.55;54.55;101168.50;5026855;27;97125;-47
2021/10/15 07:15:10;;;;;;;6.70;4.47;;;17.10;99.90;;;17.55;54.84;101160.50;5011617;27;96671;-48
2021/10/15 07:17:36;;;;;;;9.47;5.40;;;17.10;99.90;;;17.39;50.15;101159.66;5013914;27;104959;-43
2021/10/15 07:20:04;;;;;;;7.43;3.63;;;17.00;99.90;;;17.42;53.58;101164.81;5029448;27;105629;-45
2021/10/15 07:22:30;;;;;;;9.53;4.77;;;17.00;99.90;;;17.49;54.48;101166.16;5007527;27;97001;-44
2021/10/15 07:24:56;;;;;;;10.27;4.90;;;17.10;99.90;;;17.45;51.17;101163.75;5017755;27;97320;-43
2021/10/15 07:27:22;;;;;;;10.27;4.90;;;17.10;99.90;;;17.43;52.27;101171.84;5026703;27;99036;-43
2021/10/15 07:29:48;;;;;;;4.07;2.10;;;17.00;99.90;;;17.49;55.93;101168.84;5013143;27;98135;-45
2021/10/15 07:32:14;;;;;;;10.10;4.77;;;17.10;99.90;;;17.52;54.86;101170.50;5012608;27;97379;-44
2021/10/15 07:34:40;;;;;;;3.20;2.33;;;17.10;99.90;;;17.62;55.80;101170.81;5034383;27;97107;-43
2021/10/15 07:37:06;;;;;;;4.80;3.50;;;17.20;99.90;;;17.59;53.79;101176.31;5013125;27;98979;-43
2021/10/15 07:39:32;;;;;;;9.80;3.57;;;17.20;99.90;;;17.73;55.52;101173.75;5027834;27;97235;-45
2021/10/15 07:41:58;;;;;;;6.00;3.67;;;17.30;99.90;;;17.77;54.53;101164.63;5015188;27;97272;-46
2021/10/15 07:44:24;;;;;;;11.83;5.30;;;17.50;99.90;;;17.80;53.33;101175.16;5010318;27;99092;-44
2021/10/15 07:46:50;;;;;;;10.60;4.87;;;17.50;99.90;;;17.73;51.64;101179.09;5010813;27;97593;-43
2021/10/15 07:49:15;;;;;;;10.80;5.07;;;17.40;99.90;;;17.48;50.21;101180.44;5009626;27;97724;-46
2021/10/15 07:51:41;;;;;;;8.63;4.77;;;17.10;99.90;;;17.47;54.00;101176.06;5010399;27;101389;-44
2021/10/15 07:54:07;;;;;;;12.43;5.97;;;17.00;99.90;;;17.35;52.51;101184.75;5010423;27;106982;-43
2021/10/15 07:56:33;;;;;;;9.97;5.03;;;16.90;99.90;;;17.24;51.73;101182.69;5006400;27;102732;-45
2021/10/15 07:58:59;;;;;;;4.33;2.87;;;16.80;99.90;;;17.30;56.10;101184.16;5013777;27;97099;-44
2021/10/15 08:01:26;;;;;;;11.33;4.53;;;16.80;99.90;;;17.37;55.57;101177.53;5009708;27;97470;-44
2021/10/15 08:03:52;;;;;;;10.20;4.90;;;16.90;99.90;;;17.43;53.42;101182.53;5013453;27;98277;-47
2021/10/15 08:06:19;;;;;;;9.60;4.60;;;17.00;99.90;;;17.34;54.00;101183.03;5009737;27;98670;-43
2021/10/15 08:08:45;;;;;;;5.77;3.00;;;16.90;99.90;;;17.47;55.67;101189.41;5013076;27;97280;-43
2021/10/15 08:11:12;;;;;;;9.53;4.47;;;17.00;99.90;;;17.57;55.30;101186.22;5007959;27;97186;-44
2021/10/15 08:13:39;;;;;;;9.80;4.30;;;17.10;99.90;;;17.72;55.31;101180.06;5022488;27;97343;-44
2021/10/15 08:16:06;;;;;;;5.77;3.17;;;17.40;99.90;;;17.79;55.36;101179.63;5014728;27;97282;-44
2021/10/15 08:18:31;;;;;;;7.67;3.67;;;17.50;99.90;;;17.95;54.65;101179.59;4991366;27;97455;-43
2021/10/15 08:20:58;;;;;;;4.90;3.20;;;17.70;99.90;;;18.09;54.44;101193.00;5015190;27;104309;-45
2021/10/15 08:23:27;;;;;;;7.70;4.60;;;17.90;99.90;;;18.21;53.39;101190.53;4992479;27;97888;-44
2021/10/15 08:25:57;;;;;;;9.83;3.90;;;18.10;99.90;;;18.33;53.97;101190.69;5024438;27;102655;-46
2021/10/15 08:28:23;;;;;;;9.60;4.70;;;18.20;99.90;;;18.33;51.25;101195.16;5019315;27;97684;-45
2021/10/15 08:30:49;;;;;;;7.27;3.60;;;18.20;99.90;;;18.44;53.63;101190.03;5001871;27;99470;-45
2021/10/15 08:33:15;;;;;;;9.90;3.77;;;18.30;99.90;;;18.49;52.84;101189.75;5011787;27;99699;-43
2021/10/15 08:35:41;;;;;;;9.93;4.40;;;18.40;99.90;;;18.52;52.47;101203.81;4998894;27;100829;-45
2021/10/15 08:38:07;;;;;;;6.77;4.40;;;18.40;99.90;;;18.58;52.53;101194.56;5016399;27;97252;-43
2021/10/15 08:40:33;;;;;;;5.27;3.77;;;18.40;99.90;;;18.66;53.08;101203.88;4996025;27;98083;-44
2021/10/15 08:42:59;;;;;;;3.60;2.43;;;18.50;99.90;;;18.68;52.54;101196.63;4998007;27;98455;-43
2021/10/15 08:45:34;;;;;;;10.93;5.60;;;18.60;99.90;;;18.64;51.51;101195.06;4973834;27;98521;-43
2021/10/15 08:48:00;;;;;;;7.83;3.40;;;18.50;99.90;;;18.66;52.82;101185.16;4998904;27;98155;-46
2021/10/15 08:50:26;;;;;;;5.80;4.87;;;18.50;99.90;;;18.60;53.00;101188.16;4974954;27;97842;-44
2021/10/15 08:52:53;;;;;;;7.10;4.73;;;18.40;99.90;;;18.60;52.00;101188.16;4982974;27;98524;-45
2021/10/15 08:55:19;;;;;;;10.03;5.07;;;18.40;99.90;;;18.60;52.68;101188.16;4995779;27;97830;-43
2021/10/15 08:57:55;;;;;;;2.30;1.97;;;18.40;99.90;;;18.58;52.71;101178.53;4986132;27;97550;-44
2021/10/15 09:00:34;;;;;;;5.10;3.90;;;18.30;99.90;;;18.60;53.08;101177.47;4985919;27;98785;-43
2021/10/15 09:03:22;;;;;;;6.03;3.10;;;18.40;99.90;;;18.51;50.81;101182.50;4995172;27;97452;-43
2021/10/15 09:05:51;;;;;;;8.63;5.57;;;18.30;99.90;;;18.54;52.71;101177.84;4994326;27;103369;-45
2021/10/15 09:08:18;;;;;;;8.93;6.23;;;18.30;99.90;;;18.56;53.18;101189.31;4974318;27;98740;-45
2021/10/15 09:10:43;;;;;;;11.07;6.27;;;18.30;99.90;;;18.60;52.60;101193.50;4981446;27;99282;-45
2021/10/15 09:13:20;;;;;;;8.37;5.23;;;18.40;99.90;;;18.70;53.03;101189.38;5013755;27;97345;-51
2021/10/15 09:15:52;;;;;;;8.17;5.60;;;18.60;99.90;;;18.77;52.63;101197.00;4998017;27;104917;-46
2021/10/15 09:18:29;;;;;;;7.53;5.73;;;18.70;99.90;;;18.84;52.61;101198.34;4993537;27;99547;-44
2021/10/15 09:20:56;;;;;;;8.37;4.77;;;18.80;99.90;;;18.90;52.36;101200.63;5019465;27;98552;-44
2021/10/15 09:23:49;;;;;;;8.83;5.83;;;18.90;99.90;;;18.94;52.24;101199.47;4994577;27;97429;-46
2021/10/15 09:26:18;;;;;;;11.57;6.67;;;18.90;99.90;;;18.86;52.34;101204.47;4998106;27;98477;-46
2021/10/15 09:28:46;;;;;;;8.13;5.83;;;18.90;99.90;;;18.91;52.30;101197.00;5013797;27;97878;-47
2021/10/15 09:31:14;;;;;;;10.10;6.40;;;18.90;99.90;;;18.88;52.06;101202.53;4986420;27;97535;-45
2021/10/15 09:33:56;;;;;;;8.83;5.17;;;18.90;99.90;;;18.92;52.54;101204.91;4991267;27;102320;-47
2021/10/15 09:36:23;;;;;;;8.57;5.37;;;19.00;99.90;;;18.90;52.47;101217.53;4986375;27;98242;-47
2021/10/15 09:38:52;;;;;;;9.00;6.13;;;18.90;99.90;;;18.97;52.20;101207.34;5008036;27;96933;-45
2021/10/15 09:41:40;;;;;;;7.17;5.83;;;19.00;99.90;;;18.85;52.35;101214.28;5002551;27;98067;-46
2021/10/15 09:44:33;;;;;;;13.13;5.97;;;18.90;99.90;;;18.83;52.89;101231.38;4991482;27;98533;-48
2021/10/15 09:47:24;;;;;;;9.23;6.63;;;18.80;99.90;;;18.58;54.29;101243.50;4991985;27;104590;-47
2021/10/15 09:49:58;;;;;;;8.63;6.50;;;18.70;99.90;;;18.68;53.38;101238.50;4984052;27;105853;-46
2021/10/15 09:52:52;;;;;;;12.23;7.90;;;18.70;99.90;;;18.70;53.34;101248.16;5006693;27;98363;-49
2021/10/15 09:55:34;;;;;;;11.87;7.83;;;18.70;99.90;;;18.67;53.35;101260.84;4998660;27;99688;-47
2021/10/15 09:58:19;;;;;;;14.53;8.30;;;18.60;99.90;;;18.60;54.39;101265.63;4987889;27;100021;-50
2021/10/15 10:00:51;;;;;;;12.20;9.57;;;18.60;99.90;;;18.45;54.41;101269.22;4991257;27;103589;-47
2021/10/15 10:03:19;;;;;;;12.50;8.53;;;18.30;99.90;;;18.44;54.45;101267.50;5010504;27;96980;-44
2021/10/15 10:05:46;;;;;;;11.00;8.17;;;18.20;99.90;;;18.33;54.71;101264.59;5014074;27;98979;-49
2021/10/15 10:08:12;;;;;;;12.37;8.03;;;18.20;99.90;;;18.32;54.99;101257.53;5015265;27;97728;-46
2021/10/15 10:10:40;;;;;;;11.80;7.70;;;18.20;99.90;;;18.25;55.70;101259.72;4998010;27;99887;-45
2021/10/15 10:13:08;;;;;;;11.27;7.80;;;18.20;99.90;;;18.22;55.45;101256.34;5008177;27;97027;-44
2021/10/15 10:15:38;;;;;;;9.70;7.87;;;18.20;99.90;;;18.16;55.80;101259.38;5004831;27;97398;-48
2021/10/15 10:18:12;;;;;;;10.03;7.27;;;18.10;99.90;;;18.17;55.66;101263.75;5003841;27;99354;-46
2021/10/15 10:20:43;;;;;;;12.30;7.50;;;18.10;99.90;;;18.18;55.62;101270.81;5002228;27;104735;-45
2021/10/15 10:23:35;;;;;;;10.73;7.40;;;18.10;99.90;;;18.16;56.21;101270.06;4984224;27;97504;-50
2021/10/15 10:26:08;;;;;;;10.00;7.33;;;18.20;99.90;;;17.92;57.22;101270.50;5010610;27;97529;-44
2021/10/15 10:28:35;;;;;;;10.77;7.07;;;18.00;99.90;;;18.05;56.16;101266.19;4999868;27;103031;-46